sensor_id;sensor_type;location;lat;lon;timestamp;temperature;humidity
33988;DHT22;37428;53.580;-1.666;2022-10-16T00:02:08;9.60;82.50
33988;DHT22;37428;53.580;-1.666;2022-10-16T00:05:10;9.50;82.70
33988;DHT22;37428;53.580;-1.666;2022-10-16T00:08:13;9.50;83.10
33988;DHT22;37428;53.580;-1.666;2022-10-16T00:11:17;9.50;83.80
33988;DHT22;37428;53.580;-1.666;2022-10-16T00:14:19;9.50;83.90
33988;DHT22;37428;53.580;-1.666;2022-10-16T00:17:21;9.50;84.20
33988;DHT22;37428;53.580;-1.666;2022-10-16T00:20:23;9.50;85.00
33988;DHT22;37428;53.580;-1.666;2022-10-16T00:23:27;9.40;86.10
33988;DHT22;37428;53.580;-1.666;2022-10-16T00:26:31;9.40;87.80
33988;DHT22;37428;53.580;-1.666;2022-10-16T00:29:33;9.30;87.20
33988;DHT22;37428;53.580;-1.666;2022-10-16T00:32:35;9.30;87.20
33988;DHT22;37428;53.580;-1.666;2022-10-16T00:35:37;9.30;87.00
33988;DHT22;37428;53.580;-1.666;2022-10-16T00:38:41;9.40;87.00
33988;DHT22;37428;53.580;-1.666;2022-10-16T00:41:43;9.40;86.70
33988;DHT22;37428;53.580;-1.666;2022-10-16T00:44:48;9.40;87.40
33988;DHT22;37428;53.580;-1.666;2022-10-16T00:47:54;9.40;87.30
33988;DHT22;37428;53.580;-1.666;2022-10-16T00:50:58;9.40;87.30
33988;DHT22;37428;53.580;-1.666;2022-10-16T00:54:03;9.30;86.70
33988;DHT22;37428;53.580;-1.666;2022-10-16T00:57:06;9.40;86.70
33988;DHT22;37428;53.580;-1.666;2022-10-16T01:00:11;9.40;86.50
33988;DHT22;37428;53.580;-1.666;2022-10-16T01:03:26;9.40;86.30
33988;DHT22;37428;53.580;-1.666;2022-10-16T01:06:36;9.50;86.80
33988;DHT22;37428;53.580;-1.666;2022-10-16T01:09:47;9.40;88.30
33988;DHT22;37428;53.580;-1.666;2022-10-16T01:12:57;9.40;88.80
33988;DHT22;37428;53.580;-1.666;2022-10-16T01:16:06;9.30;89.50
33988;DHT22;37428;53.580;-1.666;2022-10-16T01:19:13;9.30;89.50
33988;DHT22;37428;53.580;-1.666;2022-10-16T01:22:19;9.30;90.00
33988;DHT22;37428;53.580;-1.666;2022-10-16T01:25:36;9.30;90.50
33988;DHT22;37428;53.580;-1.666;2022-10-16T01:29:14;9.20;90.50
33988;DHT22;37428;53.580;-1.666;2022-10-16T01:32:23;9.20;90.60
33988;DHT22;37428;53.580;-1.666;2022-10-16T01:35:31;9.10;89.60
33988;DHT22;37428;53.580;-1.666;2022-10-16T01:38:35;9.20;88.60
33988;DHT22;37428;53.580;-1.666;2022-10-16T01:41:40;9.20;88.30
33988;DHT22;37428;53.580;-1.666;2022-10-16T01:44:46;9.10;88.20
33988;DHT22;37428;53.580;-1.666;2022-10-16T01:47:51;9.10;88.40
33988;DHT22;37428;53.580;-1.666;2022-10-16T01:50:56;9.10;88.40
33988;DHT22;37428;53.580;-1.666;2022-10-16T01:54:00;9.10;87.80
33988;DHT22;37428;53.580;-1.666;2022-10-16T01:57:04;9.10;87.20
33988;DHT22;37428;53.580;-1.666;2022-10-16T02:00:11;9.10;87.50
33988;DHT22;37428;53.580;-1.666;2022-10-16T02:03:16;9.00;87.30
33988;DHT22;37428;53.580;-1.666;2022-10-16T02:06:20;9.00;87.40
33988;DHT22;37428;53.580;-1.666;2022-10-16T02:09:23;9.00;86.60
33988;DHT22;37428;53.580;-1.666;2022-10-16T02:12:28;9.00;86.80
33988;DHT22;37428;53.580;-1.666;2022-10-16T02:15:33;9.00;86.80
33988;DHT22;37428;53.580;-1.666;2022-10-16T02:18:35;9.00;87.10
33988;DHT22;37428;53.580;-1.666;2022-10-16T02:21:43;9.00;86.70
33988;DHT22;37428;53.580;-1.666;2022-10-16T02:24:51;9.10;87.50
33988;DHT22;37428;53.580;-1.666;2022-10-16T02:27:59;9.10;87.50
33988;DHT22;37428;53.580;-1.666;2022-10-16T02:31:08;9.10;87.30
33988;DHT22;37428;53.580;-1.666;2022-10-16T02:34:12;9.00;87.10
33988;DHT22;37428;53.580;-1.666;2022-10-16T02:37:16;9.00;86.80
33988;DHT22;37428;53.580;-1.666;2022-10-16T02:40:20;9.00;86.60
33988;DHT22;37428;53.580;-1.666;2022-10-16T02:43:22;9.00;87.10
33988;DHT22;37428;53.580;-1.666;2022-10-16T02:46:25;9.00;87.00
33988;DHT22;37428;53.580;-1.666;2022-10-16T02:49:27;8.90;87.10
33988;DHT22;37428;53.580;-1.666;2022-10-16T02:52:30;8.90;88.00
33988;DHT22;37428;53.580;-1.666;2022-10-16T02:55:32;8.90;87.50
33988;DHT22;37428;53.580;-1.666;2022-10-16T02:58:34;8.90;86.60
33988;DHT22;37428;53.580;-1.666;2022-10-16T03:01:37;8.90;86.60
33988;DHT22;37428;53.580;-1.666;2022-10-16T03:04:40;9.00;86.50
33988;DHT22;37428;53.580;-1.666;2022-10-16T03:07:42;8.90;87.40
33988;DHT22;37428;53.580;-1.666;2022-10-16T03:10:44;9.00;87.10
33988;DHT22;37428;53.580;-1.666;2022-10-16T03:13:46;8.90;86.10
33988;DHT22;37428;53.580;-1.666;2022-10-16T03:16:49;8.90;86.20
33988;DHT22;37428;53.580;-1.666;2022-10-16T03:19:52;8.90;86.70
33988;DHT22;37428;53.580;-1.666;2022-10-16T03:22:54;8.90;86.40
33988;DHT22;37428;53.580;-1.666;2022-10-16T03:25:56;8.90;86.70
33988;DHT22;37428;53.580;-1.666;2022-10-16T03:28:58;8.80;86.50
33988;DHT22;37428;53.580;-1.666;2022-10-16T03:32:01;8.80;86.50
33988;DHT22;37428;53.580;-1.666;2022-10-16T03:35:04;8.80;86.00
33988;DHT22;37428;53.580;-1.666;2022-10-16T03:38:07;8.80;86.40
33988;DHT22;37428;53.580;-1.666;2022-10-16T03:41:09;8.70;86.10
33988;DHT22;37428;53.580;-1.666;2022-10-16T03:44:11;8.70;85.20
33988;DHT22;37428;53.580;-1.666;2022-10-16T03:47:14;8.60;85.10
33988;DHT22;37428;53.580;-1.666;2022-10-16T03:50:21;8.60;85.10
33988;DHT22;37428;53.580;-1.666;2022-10-16T03:53:23;8.60;85.70
33988;DHT22;37428;53.580;-1.666;2022-10-16T03:56:25;8.60;85.80
33988;DHT22;37428;53.580;-1.666;2022-10-16T03:59:27;8.60;85.60
33988;DHT22;37428;53.580;-1.666;2022-10-16T04:02:31;8.60;85.80
33988;DHT22;37428;53.580;-1.666;2022-10-16T04:05:33;8.60;85.30
33988;DHT22;37428;53.580;-1.666;2022-10-16T04:08:35;8.60;85.50
33988;DHT22;37428;53.580;-1.666;2022-10-16T04:11:37;8.50;85.20
33988;DHT22;37428;53.580;-1.666;2022-10-16T04:14:39;8.50;85.40
33988;DHT22;37428;53.580;-1.666;2022-10-16T04:17:43;8.40;85.40
33988;DHT22;37428;53.580;-1.666;2022-10-16T04:20:45;8.40;85.20
33988;DHT22;37428;53.580;-1.666;2022-10-16T04:23:47;8.40;85.10
33988;DHT22;37428;53.580;-1.666;2022-10-16T04:26:49;8.30;85.30
33988;DHT22;37428;53.580;-1.666;2022-10-16T04:29:51;8.20;85.50
33988;DHT22;37428;53.580;-1.666;2022-10-16T04:32:55;8.30;85.10
33988;DHT22;37428;53.580;-1.666;2022-10-16T04:35:57;8.20;84.80
33988;DHT22;37428;53.580;-1.666;2022-10-16T04:38:59;8.20;84.60
33988;DHT22;37428;53.580;-1.666;2022-10-16T04:42:01;8.10;84.70
33988;DHT22;37428;53.580;-1.666;2022-10-16T04:45:05;8.10;84.90
33988;DHT22;37428;53.580;-1.666;2022-10-16T04:48:09;8.10;85.00
33988;DHT22;37428;53.580;-1.666;2022-10-16T04:51:11;8.10;84.80
33988;DHT22;37428;53.580;-1.666;2022-10-16T04:54:13;8.10;84.50
33988;DHT22;37428;53.580;-1.666;2022-10-16T04:57:15;8.10;84.40
33988;DHT22;37428;53.580;-1.666;2022-10-16T05:00:17;8.00;84.50
33988;DHT22;37428;53.580;-1.666;2022-10-16T05:03:21;8.00;84.90
33988;DHT22;37428;53.580;-1.666;2022-10-16T05:06:23;8.00;84.80
33988;DHT22;37428;53.580;-1.666;2022-10-16T05:09:25;8.00;84.90
33988;DHT22;37428;53.580;-1.666;2022-10-16T05:12:27;8.00;84.80
33988;DHT22;37428;53.580;-1.666;2022-10-16T05:15:29;7.90;84.90
33988;DHT22;37428;53.580;-1.666;2022-10-16T05:18:33;7.90;84.80
33988;DHT22;37428;53.580;-1.666;2022-10-16T05:21:35;7.90;85.20
33988;DHT22;37428;53.580;-1.666;2022-10-16T05:24:37;7.90;85.10
33988;DHT22;37428;53.580;-1.666;2022-10-16T05:27:39;7.90;85.00
33988;DHT22;37428;53.580;-1.666;2022-10-16T05:30:41;7.90;85.40
33988;DHT22;37428;53.580;-1.666;2022-10-16T05:33:45;7.80;85.40
33988;DHT22;37428;53.580;-1.666;2022-10-16T05:36:47;7.80;85.80
33988;DHT22;37428;53.580;-1.666;2022-10-16T05:39:49;7.80;85.80
33988;DHT22;37428;53.580;-1.666;2022-10-16T05:42:55;7.80;85.70
33988;DHT22;37428;53.580;-1.666;2022-10-16T05:45:59;7.70;85.60
33988;DHT22;37428;53.580;-1.666;2022-10-16T05:49:03;7.70;85.00
33988;DHT22;37428;53.580;-1.666;2022-10-16T05:52:05;7.70;84.70
33988;DHT22;37428;53.580;-1.666;2022-10-16T05:55:08;7.70;84.20
33988;DHT22;37428;53.580;-1.666;2022-10-16T05:58:10;7.70;84.10
33988;DHT22;37428;53.580;-1.666;2022-10-16T06:01:13;7.70;83.50
33988;DHT22;37428;53.580;-1.666;2022-10-16T06:04:17;7.60;83.80
33988;DHT22;37428;53.580;-1.666;2022-10-16T06:07:20;7.60;83.90
33988;DHT22;37428;53.580;-1.666;2022-10-16T06:10:22;7.60;84.10
33988;DHT22;37428;53.580;-1.666;2022-10-16T06:13:24;7.60;84.00
33988;DHT22;37428;53.580;-1.666;2022-10-16T06:16:26;7.50;83.50
33988;DHT22;37428;53.580;-1.666;2022-10-16T06:19:29;7.50;83.40
33988;DHT22;37428;53.580;-1.666;2022-10-16T06:22:32;7.50;82.80
33988;DHT22;37428;53.580;-1.666;2022-10-16T06:25:34;7.50;82.40
33988;DHT22;37428;53.580;-1.666;2022-10-16T06:28:36;7.50;81.90
33988;DHT22;37428;53.580;-1.666;2022-10-16T06:31:38;7.50;81.60
33988;DHT22;37428;53.580;-1.666;2022-10-16T06:34:42;7.40;81.60
33988;DHT22;37428;53.580;-1.666;2022-10-16T06:37:44;7.40;81.70
33988;DHT22;37428;53.580;-1.666;2022-10-16T06:40:46;7.40;81.70
33988;DHT22;37428;53.580;-1.666;2022-10-16T06:43:49;7.50;81.50
33988;DHT22;37428;53.580;-1.666;2022-10-16T06:46:51;7.40;81.50
33988;DHT22;37428;53.580;-1.666;2022-10-16T06:49:54;7.50;81.80
33988;DHT22;37428;53.580;-1.666;2022-10-16T06:52:56;7.40;81.50
33988;DHT22;37428;53.580;-1.666;2022-10-16T06:56:06;7.40;81.30
33988;DHT22;37428;53.580;-1.666;2022-10-16T06:59:09;7.50;81.60
33988;DHT22;37428;53.580;-1.666;2022-10-16T07:02:11;7.50;81.50
33988;DHT22;37428;53.580;-1.666;2022-10-16T07:05:14;7.50;81.40
33988;DHT22;37428;53.580;-1.666;2022-10-16T07:08:17;7.50;81.20
33988;DHT22;37428;53.580;-1.666;2022-10-16T07:11:21;7.50;81.20
33988;DHT22;37428;53.580;-1.666;2022-10-16T07:14:23;7.60;81.10
33988;DHT22;37428;53.580;-1.666;2022-10-16T07:17:25;7.60;81.40
33988;DHT22;37428;53.580;-1.666;2022-10-16T07:20:29;7.60;81.60
33988;DHT22;37428;53.580;-1.666;2022-10-16T07:23:31;7.60;81.60
33988;DHT22;37428;53.580;-1.666;2022-10-16T07:26:35;7.60;81.50
33988;DHT22;37428;53.580;-1.666;2022-10-16T07:29:39;7.60;81.70
33988;DHT22;37428;53.580;-1.666;2022-10-16T07:32:41;7.70;81.40
33988;DHT22;37428;53.580;-1.666;2022-10-16T07:35:52;7.70;81.70
33988;DHT22;37428;53.580;-1.666;2022-10-16T07:38:54;7.70;81.90
33988;DHT22;37428;53.580;-1.666;2022-10-16T07:41:57;7.70;81.60
33988;DHT22;37428;53.580;-1.666;2022-10-16T07:44:59;7.70;81.50
33988;DHT22;37428;53.580;-1.666;2022-10-16T07:48:01;7.80;81.10
33988;DHT22;37428;53.580;-1.666;2022-10-16T07:51:06;7.80;80.70
33988;DHT22;37428;53.580;-1.666;2022-10-16T07:54:08;7.90;80.70
33988;DHT22;37428;53.580;-1.666;2022-10-16T07:57:10;8.00;80.30
33988;DHT22;37428;53.580;-1.666;2022-10-16T08:00:19;8.00;80.40
33988;DHT22;37428;53.580;-1.666;2022-10-16T08:03:21;8.20;80.10
33988;DHT22;37428;53.580;-1.666;2022-10-16T08:06:25;8.40;79.20
33988;DHT22;37428;53.580;-1.666;2022-10-16T08:09:27;8.60;78.30
33988;DHT22;37428;53.580;-1.666;2022-10-16T08:12:29;8.80;77.20
33988;DHT22;37428;53.580;-1.666;2022-10-16T08:15:31;8.90;76.70
33988;DHT22;37428;53.580;-1.666;2022-10-16T08:18:34;9.10;75.80
33988;DHT22;37428;53.580;-1.666;2022-10-16T08:21:38;9.20;75.30
33988;DHT22;37428;53.580;-1.666;2022-10-16T08:24:40;9.30;74.20
33988;DHT22;37428;53.580;-1.666;2022-10-16T08:27:42;9.40;73.10
33988;DHT22;37428;53.580;-1.666;2022-10-16T08:30:45;9.60;73.30
33988;DHT22;37428;53.580;-1.666;2022-10-16T08:33:47;9.70;72.90
33988;DHT22;37428;53.580;-1.666;2022-10-16T08:36:53;9.70;73.10
33988;DHT22;37428;53.580;-1.666;2022-10-16T08:39:55;9.80;72.50
33988;DHT22;37428;53.580;-1.666;2022-10-16T08:46:31;10.00;72.10
33988;DHT22;37428;53.580;-1.666;2022-10-16T08:49:35;10.10;72.00
33988;DHT22;37428;53.580;-1.666;2022-10-16T08:52:42;10.20;70.80
33988;DHT22;37428;53.580;-1.666;2022-10-16T08:55:48;10.30;70.50
33988;DHT22;37428;53.580;-1.666;2022-10-16T08:58:52;10.50;70.40
33988;DHT22;37428;53.580;-1.666;2022-10-16T09:01:54;10.60;69.30
33988;DHT22;37428;53.580;-1.666;2022-10-16T09:05:18;10.70;69.50
33988;DHT22;37428;53.580;-1.666;2022-10-16T09:08:30;10.90;68.50
33988;DHT22;37428;53.580;-1.666;2022-10-16T09:11:44;11.00;68.60
33988;DHT22;37428;53.580;-1.666;2022-10-16T09:14:59;11.10;67.30
33988;DHT22;37428;53.580;-1.666;2022-10-16T09:18:12;11.30;67.00
33988;DHT22;37428;53.580;-1.666;2022-10-16T09:21:16;11.40;65.90
33988;DHT22;37428;53.580;-1.666;2022-10-16T09:24:24;11.60;65.60
33988;DHT22;37428;53.580;-1.666;2022-10-16T09:27:27;11.70;65.50
33988;DHT22;37428;53.580;-1.666;2022-10-16T09:30:29;11.90;64.50
33988;DHT22;37428;53.580;-1.666;2022-10-16T09:33:34;12.10;64.00
33988;DHT22;37428;53.580;-1.666;2022-10-16T09:36:41;12.30;64.00
33988;DHT22;37428;53.580;-1.666;2022-10-16T09:39:47;12.30;63.30
33988;DHT22;37428;53.580;-1.666;2022-10-16T09:42:52;12.50;64.00
33988;DHT22;37428;53.580;-1.666;2022-10-16T09:45:58;12.60;61.60
33988;DHT22;37428;53.580;-1.666;2022-10-16T09:49:02;12.80;61.80
33988;DHT22;37428;53.580;-1.666;2022-10-16T09:52:05;12.90;60.80
33988;DHT22;37428;53.580;-1.666;2022-10-16T09:55:16;13.00;60.20
33988;DHT22;37428;53.580;-1.666;2022-10-16T09:58:21;13.10;59.20
33988;DHT22;37428;53.580;-1.666;2022-10-16T10:01:28;13.30;59.30
33988;DHT22;37428;53.580;-1.666;2022-10-16T10:04:39;13.40;58.10
33988;DHT22;37428;53.580;-1.666;2022-10-16T10:07:43;13.50;57.40
33988;DHT22;37428;53.580;-1.666;2022-10-16T10:10:48;13.60;57.70
33988;DHT22;37428;53.580;-1.666;2022-10-16T10:13:50;13.80;56.70
33988;DHT22;37428;53.580;-1.666;2022-10-16T10:17:01;13.80;56.60
33988;DHT22;37428;53.580;-1.666;2022-10-16T10:20:21;13.90;56.40
33988;DHT22;37428;53.580;-1.666;2022-10-16T10:23:26;14.00;56.40
33988;DHT22;37428;53.580;-1.666;2022-10-16T10:26:32;14.30;57.80
33988;DHT22;37428;53.580;-1.666;2022-10-16T10:29:45;14.40;55.70
33988;DHT22;37428;53.580;-1.666;2022-10-16T10:33:01;14.70;56.70
33988;DHT22;37428;53.580;-1.666;2022-10-16T10:36:19;14.70;55.20
33988;DHT22;37428;53.580;-1.666;2022-10-16T10:39:29;14.70;54.20
33988;DHT22;37428;53.580;-1.666;2022-10-16T10:42:36;14.80;53.40
33988;DHT22;37428;53.580;-1.666;2022-10-16T10:45:46;14.80;54.00
33988;DHT22;37428;53.580;-1.666;2022-10-16T10:49:06;14.80;53.80
33988;DHT22;37428;53.580;-1.666;2022-10-16T10:52:26;14.80;54.30
33988;DHT22;37428;53.580;-1.666;2022-10-16T10:55:38;15.10;54.20
33988;DHT22;37428;53.580;-1.666;2022-10-16T10:59:02;15.30;53.70
33988;DHT22;37428;53.580;-1.666;2022-10-16T11:02:16;15.50;53.80
33988;DHT22;37428;53.580;-1.666;2022-10-16T11:05:39;15.60;51.60
33988;DHT22;37428;53.580;-1.666;2022-10-16T11:08:46;15.80;51.30
33988;DHT22;37428;53.580;-1.666;2022-10-16T11:11:53;16.00;51.30
33988;DHT22;37428;53.580;-1.666;2022-10-16T11:15:03;16.10;49.50
33988;DHT22;37428;53.580;-1.666;2022-10-16T11:18:11;16.20;48.70
33988;DHT22;37428;53.580;-1.666;2022-10-16T11:21:16;16.10;48.70
33988;DHT22;37428;53.580;-1.666;2022-10-16T11:24:24;16.20;48.00
33988;DHT22;37428;53.580;-1.666;2022-10-16T11:27:36;16.30;48.80
33988;DHT22;37428;53.580;-1.666;2022-10-16T11:30:46;16.50;47.10
33988;DHT22;37428;53.580;-1.666;2022-10-16T11:33:57;16.70;47.10
33988;DHT22;37428;53.580;-1.666;2022-10-16T11:37:08;16.60;46.40
33988;DHT22;37428;53.580;-1.666;2022-10-16T11:40:21;16.60;46.30
33988;DHT22;37428;53.580;-1.666;2022-10-16T11:43:28;16.80;47.00
33988;DHT22;37428;53.580;-1.666;2022-10-16T11:46:32;16.80;46.00
33988;DHT22;37428;53.580;-1.666;2022-10-16T11:49:38;16.80;46.20
33988;DHT22;37428;53.580;-1.666;2022-10-16T11:52:46;16.70;45.80
33988;DHT22;37428;53.580;-1.666;2022-10-16T11:55:52;16.60;46.50
33988;DHT22;37428;53.580;-1.666;2022-10-16T11:58:56;16.70;46.10
33988;DHT22;37428;53.580;-1.666;2022-10-16T12:02:17;16.70;46.40
33988;DHT22;37428;53.580;-1.666;2022-10-16T12:05:28;16.80;46.50
33988;DHT22;37428;53.580;-1.666;2022-10-16T12:08:35;17.10;45.40
33988;DHT22;37428;53.580;-1.666;2022-10-16T12:11:38;17.30;45.20
33988;DHT22;37428;53.580;-1.666;2022-10-16T12:14:40;17.50;46.30
33988;DHT22;37428;53.580;-1.666;2022-10-16T12:17:44;17.20;44.30
33988;DHT22;37428;53.580;-1.666;2022-10-16T12:20:54;16.80;45.80
33988;DHT22;37428;53.580;-1.666;2022-10-16T12:24:01;16.80;46.00
33988;DHT22;37428;53.580;-1.666;2022-10-16T12:27:17;16.60;45.80
33988;DHT22;37428;53.580;-1.666;2022-10-16T12:30:23;16.60;47.30
33988;DHT22;37428;53.580;-1.666;2022-10-16T12:33:29;16.70;45.50
33988;DHT22;37428;53.580;-1.666;2022-10-16T12:36:34;17.00;45.10
33988;DHT22;37428;53.580;-1.666;2022-10-16T12:39:36;17.20;44.60
33988;DHT22;37428;53.580;-1.666;2022-10-16T12:42:39;17.40;43.20
33988;DHT22;37428;53.580;-1.666;2022-10-16T12:45:41;17.50;44.00
33988;DHT22;37428;53.580;-1.666;2022-10-16T12:48:44;17.60;45.00
33988;DHT22;37428;53.580;-1.666;2022-10-16T12:51:48;17.50;45.10
33988;DHT22;37428;53.580;-1.666;2022-10-16T12:54:51;17.30;45.20
33988;DHT22;37428;53.580;-1.666;2022-10-16T13:01:41;16.60;46.20
33988;DHT22;37428;53.580;-1.666;2022-10-16T13:05:03;16.20;46.80
33988;DHT22;37428;53.580;-1.666;2022-10-16T13:08:30;15.90;46.70
33988;DHT22;37428;53.580;-1.666;2022-10-16T13:15:22;15.50;46.60
33988;DHT22;37428;53.580;-1.666;2022-10-16T13:18:32;15.40;46.10
33988;DHT22;37428;53.580;-1.666;2022-10-16T13:21:48;15.20;46.10
33988;DHT22;37428;53.580;-1.666;2022-10-16T13:25:04;15.00;47.10
33988;DHT22;37428;53.580;-1.666;2022-10-16T13:28:11;14.90;48.70
33988;DHT22;37428;53.580;-1.666;2022-10-16T13:31:19;14.80;49.40
33988;DHT22;37428;53.580;-1.666;2022-10-16T13:34:22;14.70;50.80
33988;DHT22;37428;53.580;-1.666;2022-10-16T13:37:26;14.70;50.80
33988;DHT22;37428;53.580;-1.666;2022-10-16T13:40:28;14.70;48.00
33988;DHT22;37428;53.580;-1.666;2022-10-16T13:43:34;14.70;48.10
33988;DHT22;37428;53.580;-1.666;2022-10-16T13:46:37;14.80;49.90
33988;DHT22;37428;53.580;-1.666;2022-10-16T13:49:59;14.70;49.00
33988;DHT22;37428;53.580;-1.666;2022-10-16T13:53:17;14.80;49.70
33988;DHT22;37428;53.580;-1.666;2022-10-16T13:56:21;14.80;48.70
33988;DHT22;37428;53.580;-1.666;2022-10-16T13:59:27;14.70;49.20
33988;DHT22;37428;53.580;-1.666;2022-10-16T14:02:37;14.60;49.90
33988;DHT22;37428;53.580;-1.666;2022-10-16T14:05:43;14.50;48.10
33988;DHT22;37428;53.580;-1.666;2022-10-16T14:09:03;14.50;48.40
33988;DHT22;37428;53.580;-1.666;2022-10-16T14:12:10;14.50;49.30
33988;DHT22;37428;53.580;-1.666;2022-10-16T14:15:17;14.40;48.80
33988;DHT22;37428;53.580;-1.666;2022-10-16T14:18:23;14.40;49.10
33988;DHT22;37428;53.580;-1.666;2022-10-16T14:21:28;14.50;50.70
33988;DHT22;37428;53.580;-1.666;2022-10-16T14:24:45;14.60;50.30
33988;DHT22;37428;53.580;-1.666;2022-10-16T14:28:15;14.50;49.80
33988;DHT22;37428;53.580;-1.666;2022-10-16T14:31:27;14.50;48.90
33988;DHT22;37428;53.580;-1.666;2022-10-16T14:34:31;14.50;49.50
33988;DHT22;37428;53.580;-1.666;2022-10-16T14:37:36;14.50;48.20
33988;DHT22;37428;53.580;-1.666;2022-10-16T14:40:47;14.80;49.00
33988;DHT22;37428;53.580;-1.666;2022-10-16T14:43:52;15.10;47.20
33988;DHT22;37428;53.580;-1.666;2022-10-16T14:46:55;15.20;46.20
33988;DHT22;37428;53.580;-1.666;2022-10-16T14:50:00;15.00;45.70
33988;DHT22;37428;53.580;-1.666;2022-10-16T14:53:07;14.80;46.00
33988;DHT22;37428;53.580;-1.666;2022-10-16T14:56:17;14.60;47.20
33988;DHT22;37428;53.580;-1.666;2022-10-16T14:59:26;14.50;48.30
33988;DHT22;37428;53.580;-1.666;2022-10-16T15:02:32;14.30;47.70
33988;DHT22;37428;53.580;-1.666;2022-10-16T15:05:34;14.30;48.30
33988;DHT22;37428;53.580;-1.666;2022-10-16T15:08:37;14.10;49.00
33988;DHT22;37428;53.580;-1.666;2022-10-16T15:11:43;14.00;50.00
33988;DHT22;37428;53.580;-1.666;2022-10-16T15:14:46;13.80;50.00
33988;DHT22;37428;53.580;-1.666;2022-10-16T15:17:49;13.60;50.20
33988;DHT22;37428;53.580;-1.666;2022-10-16T15:20:53;13.50;50.50
33988;DHT22;37428;53.580;-1.666;2022-10-16T15:23:55;13.50;51.00
33988;DHT22;37428;53.580;-1.666;2022-10-16T15:26:59;13.40;50.50
33988;DHT22;37428;53.580;-1.666;2022-10-16T15:30:02;13.40;51.30
33988;DHT22;37428;53.580;-1.666;2022-10-16T15:33:08;13.50;51.60
33988;DHT22;37428;53.580;-1.666;2022-10-16T15:36:12;13.40;51.80
33988;DHT22;37428;53.580;-1.666;2022-10-16T15:39:16;13.50;52.30
33988;DHT22;37428;53.580;-1.666;2022-10-16T15:42:20;13.50;52.90
33988;DHT22;37428;53.580;-1.666;2022-10-16T15:45:22;13.40;53.30
33988;DHT22;37428;53.580;-1.666;2022-10-16T15:48:24;13.30;53.40
33988;DHT22;37428;53.580;-1.666;2022-10-16T15:51:27;13.30;54.10
33988;DHT22;37428;53.580;-1.666;2022-10-16T15:54:30;13.20;54.00
33988;DHT22;37428;53.580;-1.666;2022-10-16T15:57:35;13.10;54.10
33988;DHT22;37428;53.580;-1.666;2022-10-16T16:00:39;13.00;54.50
33988;DHT22;37428;53.580;-1.666;2022-10-16T16:03:41;12.90;54.00
33988;DHT22;37428;53.580;-1.666;2022-10-16T16:06:43;12.90;53.90
33988;DHT22;37428;53.580;-1.666;2022-10-16T16:09:46;12.80;53.50
33988;DHT22;37428;53.580;-1.666;2022-10-16T16:12:52;12.70;52.70
33988;DHT22;37428;53.580;-1.666;2022-10-16T16:15:54;12.60;53.50
33988;DHT22;37428;53.580;-1.666;2022-10-16T16:18:56;12.70;54.20
33988;DHT22;37428;53.580;-1.666;2022-10-16T16:21:58;12.50;53.60
33988;DHT22;37428;53.580;-1.666;2022-10-16T16:25:01;12.40;54.20
33988;DHT22;37428;53.580;-1.666;2022-10-16T16:28:04;12.40;54.20
33988;DHT22;37428;53.580;-1.666;2022-10-16T16:31:07;12.40;54.60
33988;DHT22;37428;53.580;-1.666;2022-10-16T16:34:10;12.40;55.20
33988;DHT22;37428;53.580;-1.666;2022-10-16T16:37:12;12.40;55.40
33988;DHT22;37428;53.580;-1.666;2022-10-16T16:40:14;12.40;55.20
33988;DHT22;37428;53.580;-1.666;2022-10-16T16:43:18;12.40;55.30
33988;DHT22;37428;53.580;-1.666;2022-10-16T16:46:22;12.40;55.50
33988;DHT22;37428;53.580;-1.666;2022-10-16T16:49:24;12.40;55.60
33988;DHT22;37428;53.580;-1.666;2022-10-16T16:52:29;12.40;55.10
33988;DHT22;37428;53.580;-1.666;2022-10-16T16:55:32;12.40;55.60
33988;DHT22;37428;53.580;-1.666;2022-10-16T16:58:37;12.40;55.80
33988;DHT22;37428;53.580;-1.666;2022-10-16T17:01:41;12.30;55.80
33988;DHT22;37428;53.580;-1.666;2022-10-16T17:04:43;12.20;55.40
33988;DHT22;37428;53.580;-1.666;2022-10-16T17:07:45;12.20;56.10
33988;DHT22;37428;53.580;-1.666;2022-10-16T17:10:48;12.10;56.50
33988;DHT22;37428;53.580;-1.666;2022-10-16T17:13:57;12.10;57.10
33988;DHT22;37428;53.580;-1.666;2022-10-16T17:17:00;12.00;57.20
33988;DHT22;37428;53.580;-1.666;2022-10-16T17:20:02;12.00;57.50
33988;DHT22;37428;53.580;-1.666;2022-10-16T17:23:05;11.90;57.40
33988;DHT22;37428;53.580;-1.666;2022-10-16T17:26:10;11.90;56.80
33988;DHT22;37428;53.580;-1.666;2022-10-16T17:29:15;11.90;57.10
33988;DHT22;37428;53.580;-1.666;2022-10-16T17:32:18;11.80;57.40
33988;DHT22;37428;53.580;-1.666;2022-10-16T17:35:23;11.90;58.00
33988;DHT22;37428;53.580;-1.666;2022-10-16T17:38:25;11.90;58.40
33988;DHT22;37428;53.580;-1.666;2022-10-16T17:41:30;11.90;58.00
33988;DHT22;37428;53.580;-1.666;2022-10-16T17:44:33;11.90;58.50
33988;DHT22;37428;53.580;-1.666;2022-10-16T17:47:35;11.90;59.20
33988;DHT22;37428;53.580;-1.666;2022-10-16T17:50:39;11.90;58.90
33988;DHT22;37428;53.580;-1.666;2022-10-16T17:53:41;11.90;59.00
33988;DHT22;37428;53.580;-1.666;2022-10-16T17:56:44;11.80;59.60
33988;DHT22;37428;53.580;-1.666;2022-10-16T17:59:48;11.70;59.70
33988;DHT22;37428;53.580;-1.666;2022-10-16T18:02:50;11.70;60.30
33988;DHT22;37428;53.580;-1.666;2022-10-16T18:05:53;11.70;60.30
33988;DHT22;37428;53.580;-1.666;2022-10-16T18:08:57;11.60;60.60
33988;DHT22;37428;53.580;-1.666;2022-10-16T18:11:59;11.50;60.60
33988;DHT22;37428;53.580;-1.666;2022-10-16T18:15:03;11.40;61.00
33988;DHT22;37428;53.580;-1.666;2022-10-16T18:18:06;11.40;61.30
33988;DHT22;37428;53.580;-1.666;2022-10-16T18:21:08;11.30;61.90
33988;DHT22;37428;53.580;-1.666;2022-10-16T18:24:11;11.30;62.10
33988;DHT22;37428;53.580;-1.666;2022-10-16T18:27:13;11.20;61.90
33988;DHT22;37428;53.580;-1.666;2022-10-16T18:30:17;11.10;62.30
33988;DHT22;37428;53.580;-1.666;2022-10-16T18:33:19;11.10;62.80
33988;DHT22;37428;53.580;-1.666;2022-10-16T18:36:23;11.00;63.40
33988;DHT22;37428;53.580;-1.666;2022-10-16T18:39:26;11.00;64.00
33988;DHT22;37428;53.580;-1.666;2022-10-16T18:42:28;11.00;64.20
33988;DHT22;37428;53.580;-1.666;2022-10-16T18:45:32;11.00;64.20
33988;DHT22;37428;53.580;-1.666;2022-10-16T18:48:34;11.10;64.20
33988;DHT22;37428;53.580;-1.666;2022-10-16T18:51:38;11.10;64.20
33988;DHT22;37428;53.580;-1.666;2022-10-16T18:54:42;11.10;64.10
33988;DHT22;37428;53.580;-1.666;2022-10-16T18:57:44;11.10;64.30
33988;DHT22;37428;53.580;-1.666;2022-10-16T19:00:47;11.00;64.60
33988;DHT22;37428;53.580;-1.666;2022-10-16T19:03:53;10.90;65.30
33988;DHT22;37428;53.580;-1.666;2022-10-16T19:06:56;10.90;65.40
33988;DHT22;37428;53.580;-1.666;2022-10-16T19:09:58;10.80;65.80
33988;DHT22;37428;53.580;-1.666;2022-10-16T19:13:00;10.80;66.40
33988;DHT22;37428;53.580;-1.666;2022-10-16T19:16:09;10.80;66.20
33988;DHT22;37428;53.580;-1.666;2022-10-16T19:19:13;10.70;66.60
33988;DHT22;37428;53.580;-1.666;2022-10-16T19:22:15;10.70;67.30
33988;DHT22;37428;53.580;-1.666;2022-10-16T19:25:27;10.70;67.60
33988;DHT22;37428;53.580;-1.666;2022-10-16T19:28:29;10.80;67.90
33988;DHT22;37428;53.580;-1.666;2022-10-16T19:31:33;10.90;67.50